sensor_id;sensor_type;location;lat;lon;timestamp;P1;durP1;ratioP1;P2;durP2;ratioP2
35877;SDS011;21982;49.804;24.072;2023-03-30T00:00:38;11.65;;;4.60;;
35877;SDS011;21982;49.804;24.072;2023-03-30T00:03:07;19.10;;;7.63;;
35877;SDS011;21982;49.804;24.072;2023-03-30T00:05:33;13.80;;;6.30;;
35877;SDS011;21982;49.804;24.072;2023-03-30T00:07:59;15.00;;;5.18;;
35877;SDS011;21982;49.804;24.072;2023-03-30T00:10:24;15.20;;;6.63;;
35877;SDS011;21982;49.804;24.072;2023-03-30T00:12:51;13.35;;;5.70;;
35877;SDS011;21982;49.804;24.072;2023-03-30T00:15:17;8.30;;;3.83;;
35877;SDS011;21982;49.804;24.072;2023-03-30T00:17:45;11.63;;;5.78;;
35877;SDS011;21982;49.804;24.072;2023-03-30T00:20:11;11.70;;;4.50;;
35877;SDS011;21982;49.804;24.072;2023-03-30T00:22:38;12.75;;;5.22;;
35877;SDS011;21982;49.804;24.072;2023-03-30T00:25:05;10.77;;;6.13;;
35877;SDS011;21982;49.804;24.072;2023-03-30T00:27:32;15.10;;;4.93;;
35877;SDS011;21982;49.804;24.072;2023-03-30T00:29:58;12.77;;;5.70;;
35877;SDS011;21982;49.804;24.072;2023-03-30T00:32:25;12.48;;;5.30;;
35877;SDS011;21982;49.804;24.072;2023-03-30T00:34:51;14.35;;;5.68;;
35877;SDS011;21982;49.804;24.072;2023-03-30T00:37:16;10.20;;;5.47;;
35877;SDS011;21982;49.804;24.072;2023-03-30T00:39:43;14.68;;;5.75;;
35877;SDS011;21982;49.804;24.072;2023-03-30T00:42:14;11.05;;;5.40;;
35877;SDS011;21982;49.804;24.072;2023-03-30T00:47:25;11.63;;;5.57;;
35877;SDS011;21982;49.804;24.072;2023-03-30T00:49:52;11.30;;;4.57;;
35877;SDS011;21982;49.804;24.072;2023-03-30T00:52:17;9.27;;;4.07;;
35877;SDS011;21982;49.804;24.072;2023-03-30T00:54:44;9.20;;;4.43;;
35877;SDS011;21982;49.804;24.072;2023-03-30T00:57:11;8.23;;;3.97;;
35877;SDS011;21982;49.804;24.072;2023-03-30T00:59:37;11.60;;;3.60;;
35877;SDS011;21982;49.804;24.072;2023-03-30T01:02:03;11.40;;;4.47;;
35877;SDS011;21982;49.804;24.072;2023-03-30T01:04:30;11.07;;;3.67;;
35877;SDS011;21982;49.804;24.072;2023-03-30T01:06:55;9.85;;;3.47;;
35877;SDS011;21982;49.804;24.072;2023-03-30T01:09:22;9.15;;;3.35;;
35877;SDS011;21982;49.804;24.072;2023-03-30T01:11:49;9.25;;;3.95;;
35877;SDS011;21982;49.804;24.072;2023-03-30T01:14:14;11.50;;;4.13;;
35877;SDS011;21982;49.804;24.072;2023-03-30T01:44:54;11.90;;;5.15;;
35877;SDS011;21982;49.804;24.072;2023-03-30T01:47:23;7.90;;;4.07;;
35877;SDS011;21982;49.804;24.072;2023-03-30T01:50:40;8.45;;;3.13;;
35877;SDS011;21982;49.804;24.072;2023-03-30T01:53:14;7.47;;;3.63;;
35877;SDS011;21982;49.804;24.072;2023-03-30T01:55:50;7.70;;;3.00;;
35877;SDS011;21982;49.804;24.072;2023-03-30T01:58:27;7.78;;;2.65;;
35877;SDS011;21982;49.804;24.072;2023-03-30T02:01:12;5.93;;;2.60;;
35877;SDS011;21982;49.804;24.072;2023-03-30T02:03:41;9.98;;;3.13;;
35877;SDS011;21982;49.804;24.072;2023-03-30T02:06:17;8.25;;;3.05;;
35877;SDS011;21982;49.804;24.072;2023-03-30T02:08:48;6.82;;;2.47;;
35877;SDS011;21982;49.804;24.072;2023-03-30T02:11:18;9.82;;;2.72;;
35877;SDS011;21982;49.804;24.072;2023-03-30T02:13:44;6.20;;;2.92;;
35877;SDS011;21982;49.804;24.072;2023-03-30T02:16:13;8.33;;;3.90;;
35877;SDS011;21982;49.804;24.072;2023-03-30T02:18:42;13.70;;;4.25;;
35877;SDS011;21982;49.804;24.072;2023-03-30T02:21:08;12.00;;;5.32;;
35877;SDS011;21982;49.804;24.072;2023-03-30T02:23:35;24.00;;;9.57;;
35877;SDS011;21982;49.804;24.072;2023-03-30T02:26:03;13.75;;;5.50;;
35877;SDS011;21982;49.804;24.072;2023-03-30T02:28:32;10.30;;;5.00;;
35877;SDS011;21982;49.804;24.072;2023-03-30T02:30:57;10.82;;;4.55;;
35877;SDS011;21982;49.804;24.072;2023-03-30T02:33:24;11.65;;;4.93;;
35877;SDS011;21982;49.804;24.072;2023-03-30T02:39:06;7.95;;;3.55;;
35877;SDS011;21982;49.804;24.072;2023-03-30T02:47:12;10.38;;;5.13;;
35877;SDS011;21982;49.804;24.072;2023-03-30T02:55:08;9.50;;;4.23;;
35877;SDS011;21982;49.804;24.072;2023-03-30T02:58:02;14.70;;;5.55;;
35877;SDS011;21982;49.804;24.072;2023-03-30T03:00:40;14.63;;;5.60;;
35877;SDS011;21982;49.804;24.072;2023-03-30T03:03:23;13.17;;;5.13;;
35877;SDS011;21982;49.804;24.072;2023-03-30T03:05:51;11.15;;;5.32;;
35877;SDS011;21982;49.804;24.072;2023-03-30T03:08:21;16.60;;;7.23;;
35877;SDS011;21982;49.804;24.072;2023-03-30T03:10:49;17.97;;;8.70;;
35877;SDS011;21982;49.804;24.072;2023-03-30T03:13:15;23.57;;;8.37;;
35877;SDS011;21982;49.804;24.072;2023-03-30T03:15:43;16.42;;;6.78;;
35877;SDS011;21982;49.804;24.072;2023-03-30T03:18:10;12.55;;;4.60;;
35877;SDS011;21982;49.804;24.072;2023-03-30T03:20:37;14.15;;;5.20;;
35877;SDS011;21982;49.804;24.072;2023-03-30T03:23:02;11.23;;;5.63;;
35877;SDS011;21982;49.804;24.072;2023-03-30T03:25:28;9.73;;;4.10;;
35877;SDS011;21982;49.804;24.072;2023-03-30T03:27:54;9.77;;;3.97;;
35877;SDS011;21982;49.804;24.072;2023-03-30T03:30:19;11.67;;;4.67;;
35877;SDS011;21982;49.804;24.072;2023-03-30T03:32:45;12.27;;;4.40;;
35877;SDS011;21982;49.804;24.072;2023-03-30T03:35:11;8.07;;;3.30;;
35877;SDS011;21982;49.804;24.072;2023-03-30T03:37:36;10.23;;;4.43;;
35877;SDS011;21982;49.804;24.072;2023-03-30T03:40:02;9.52;;;3.50;;
35877;SDS011;21982;49.804;24.072;2023-03-30T03:42:29;14.85;;;5.35;;
35877;SDS011;21982;49.804;24.072;2023-03-30T03:44:55;14.60;;;6.70;;
35877;SDS011;21982;49.804;24.072;2023-03-30T03:47:20;10.87;;;4.83;;
35877;SDS011;21982;49.804;24.072;2023-03-30T03:49:47;10.05;;;4.93;;
35877;SDS011;21982;49.804;24.072;2023-03-30T03:52:12;9.05;;;3.85;;
35877;SDS011;21982;49.804;24.072;2023-03-30T03:54:37;10.85;;;4.15;;
35877;SDS011;21982;49.804;24.072;2023-03-30T03:57:03;9.73;;;4.68;;
35877;SDS011;21982;49.804;24.072;2023-03-30T03:59:29;11.02;;;3.97;;
35877;SDS011;21982;49.804;24.072;2023-03-30T04:01:55;10.27;;;3.75;;
35877;SDS011;21982;49.804;24.072;2023-03-30T04:04:20;9.52;;;4.00;;
35877;SDS011;21982;49.804;24.072;2023-03-30T04:06:45;12.73;;;5.32;;
35877;SDS011;21982;49.804;24.072;2023-03-30T04:09:11;12.07;;;6.43;;
35877;SDS011;21982;49.804;24.072;2023-03-30T04:11:36;16.85;;;6.97;;
35877;SDS011;21982;49.804;24.072;2023-03-30T04:14:02;11.93;;;4.50;;
35877;SDS011;21982;49.804;24.072;2023-03-30T04:16:27;11.18;;;5.43;;
35877;SDS011;21982;49.804;24.072;2023-03-30T04:18:53;14.48;;;6.47;;
35877;SDS011;21982;49.804;24.072;2023-03-30T04:21:18;18.50;;;6.75;;
35877;SDS011;21982;49.804;24.072;2023-03-30T04:23:44;15.90;;;7.80;;
35877;SDS011;21982;49.804;24.072;2023-03-30T04:26:13;22.17;;;8.82;;
35877;SDS011;21982;49.804;24.072;2023-03-30T04:28:40;21.33;;;7.27;;
35877;SDS011;21982;49.804;24.072;2023-03-30T04:31:06;13.32;;;6.22;;
35877;SDS011;21982;49.804;24.072;2023-03-30T04:33:37;14.70;;;6.32;;
35877;SDS011;21982;49.804;24.072;2023-03-30T04:36:09;13.50;;;7.68;;
35877;SDS011;21982;49.804;24.072;2023-03-30T04:38:37;13.95;;;5.90;;
35877;SDS011;21982;49.804;24.072;2023-03-30T04:41:02;18.35;;;7.70;;
35877;SDS011;21982;49.804;24.072;2023-03-30T04:43:29;19.75;;;6.30;;
35877;SDS011;21982;49.804;24.072;2023-03-30T04:45:55;14.25;;;5.07;;
35877;SDS011;21982;49.804;24.072;2023-03-30T04:48:21;15.23;;;4.97;;
35877;SDS011;21982;49.804;24.072;2023-03-30T04:50:48;11.80;;;5.47;;
35877;SDS011;21982;49.804;24.072;2023-03-30T04:53:15;14.30;;;5.57;;
35877;SDS011;21982;49.804;24.072;2023-03-30T04:55:41;17.33;;;6.45;;
35877;SDS011;21982;49.804;24.072;2023-03-30T04:58:12;15.52;;;7.68;;
35877;SDS011;21982;49.804;24.072;2023-03-30T05:00:37;12.73;;;5.47;;
35877;SDS011;21982;49.804;24.072;2023-03-30T05:03:03;12.25;;;4.57;;
35877;SDS011;21982;49.804;24.072;2023-03-30T05:05:30;14.60;;;6.07;;
35877;SDS011;21982;49.804;24.072;2023-03-30T05:07:55;21.20;;;7.90;;
35877;SDS011;21982;49.804;24.072;2023-03-30T05:10:21;14.95;;;6.85;;
35877;SDS011;21982;49.804;24.072;2023-03-30T05:12:46;13.70;;;6.38;;
35877;SDS011;21982;49.804;24.072;2023-03-30T05:15:12;12.73;;;6.15;;
35877;SDS011;21982;49.804;24.072;2023-03-30T05:17:38;10.57;;;5.53;;
35877;SDS011;21982;49.804;24.072;2023-03-30T05:20:04;11.95;;;5.70;;
35877;SDS011;21982;49.804;24.072;2023-03-30T05:22:34;14.95;;;6.05;;
35877;SDS011;21982;49.804;24.072;2023-03-30T05:25:00;10.07;;;5.45;;
35877;SDS011;21982;49.804;24.072;2023-03-30T05:27:31;12.57;;;5.90;;
35877;SDS011;21982;49.804;24.072;2023-03-30T05:29:58;10.57;;;5.88;;
35877;SDS011;21982;49.804;24.072;2023-03-30T05:32:24;10.38;;;5.10;;
35877;SDS011;21982;49.804;24.072;2023-03-30T05:34:50;8.55;;;4.32;;
35877;SDS011;21982;49.804;24.072;2023-03-30T05:37:15;11.98;;;5.07;;
35877;SDS011;21982;49.804;24.072;2023-03-30T05:39:40;12.43;;;4.68;;
35877;SDS011;21982;49.804;24.072;2023-03-30T05:42:06;12.48;;;4.30;;
35877;SDS011;21982;49.804;24.072;2023-03-30T05:44:32;13.00;;;4.55;;
35877;SDS011;21982;49.804;24.072;2023-03-30T05:46:57;7.55;;;3.58;;
35877;SDS011;21982;49.804;24.072;2023-03-30T05:49:23;13.98;;;4.53;;
35877;SDS011;21982;49.804;24.072;2023-03-30T05:51:48;10.57;;;4.65;;
35877;SDS011;21982;49.804;24.072;2023-03-30T05:54:14;14.68;;;4.60;;
35877;SDS011;21982;49.804;24.072;2023-03-30T05:56:40;13.95;;;3.65;;
35877;SDS011;21982;49.804;24.072;2023-03-30T05:59:06;7.97;;;3.03;;
35877;SDS011;21982;49.804;24.072;2023-03-30T06:01:33;7.93;;;3.58;;
35877;SDS011;21982;49.804;24.072;2023-03-30T06:03:59;17.13;;;4.00;;
35877;SDS011;21982;49.804;24.072;2023-03-30T06:06:25;8.20;;;3.65;;
35877;SDS011;21982;49.804;24.072;2023-03-30T06:08:51;10.65;;;4.28;;
35877;SDS011;21982;49.804;24.072;2023-03-30T06:11:16;10.75;;;5.10;;
35877;SDS011;21982;49.804;24.072;2023-03-30T06:13:42;11.68;;;3.95;;
35877;SDS011;21982;49.804;24.072;2023-03-30T06:16:07;12.95;;;5.75;;
35877;SDS011;21982;49.804;24.072;2023-03-30T06:18:33;8.30;;;4.07;;
35877;SDS011;21982;49.804;24.072;2023-03-30T06:20:59;10.48;;;4.55;;
35877;SDS011;21982;49.804;24.072;2023-03-30T06:23:26;11.88;;;4.30;;
35877;SDS011;21982;49.804;24.072;2023-03-30T06:25:52;18.20;;;6.55;;
35877;SDS011;21982;49.804;24.072;2023-03-30T06:28:19;9.52;;;5.05;;
35877;SDS011;21982;49.804;24.072;2023-03-30T06:30:45;10.68;;;4.57;;
35877;SDS011;21982;49.804;24.072;2023-03-30T06:33:13;8.25;;;4.20;;
35877;SDS011;21982;49.804;24.072;2023-03-30T06:35:43;10.45;;;4.30;;
35877;SDS011;21982;49.804;24.072;2023-03-30T06:38:12;9.90;;;4.05;;
35877;SDS011;21982;49.804;24.072;2023-03-30T06:40:38;11.18;;;3.83;;
35877;SDS011;21982;49.804;24.072;2023-03-30T07:23:22;13.90;;;4.15;;
35877;SDS011;21982;49.804;24.072;2023-03-30T07:25:48;7.43;;;3.60;;
35877;SDS011;21982;49.804;24.072;2023-03-30T07:28:13;11.18;;;4.82;;
35877;SDS011;21982;49.804;24.072;2023-03-30T07:30:39;8.50;;;4.70;;
35877;SDS011;21982;49.804;24.072;2023-03-30T07:33:05;7.00;;;3.78;;
35877;SDS011;21982;49.804;24.072;2023-03-30T07:35:30;8.18;;;3.63;;
35877;SDS011;21982;49.804;24.072;2023-03-30T07:37:56;9.63;;;4.03;;
35877;SDS011;21982;49.804;24.072;2023-03-30T07:40:23;18.75;;;8.77;;
35877;SDS011;21982;49.804;24.072;2023-03-30T07:42:53;12.48;;;4.45;;
35877;SDS011;21982;49.804;24.072;2023-03-30T07:45:18;8.95;;;3.78;;
35877;SDS011;21982;49.804;24.072;2023-03-30T07:47:44;7.05;;;3.20;;
35877;SDS011;21982;49.804;24.072;2023-03-30T07:50:10;7.22;;;3.58;;
35877;SDS011;21982;49.804;24.072;2023-03-30T07:52:35;9.85;;;3.33;;
35877;SDS011;21982;49.804;24.072;2023-03-30T07:55:01;8.93;;;4.10;;
35877;SDS011;21982;49.804;24.072;2023-03-30T07:57:27;8.10;;;3.55;;
35877;SDS011;21982;49.804;24.072;2023-03-30T07:59:53;8.95;;;3.70;;
35877;SDS011;21982;49.804;24.072;2023-03-30T08:02:18;9.73;;;3.40;;
35877;SDS011;21982;49.804;24.072;2023-03-30T08:04:44;7.38;;;4.55;;
35877;SDS011;21982;49.804;24.072;2023-03-30T08:07:11;8.45;;;4.78;;
35877;SDS011;21982;49.804;24.072;2023-03-30T08:09:37;6.90;;;4.00;;
35877;SDS011;21982;49.804;24.072;2023-03-30T08:12:04;9.35;;;4.28;;
35877;SDS011;21982;49.804;24.072;2023-03-30T08:14:30;7.88;;;3.78;;
35877;SDS011;21982;49.804;24.072;2023-03-30T08:16:58;10.05;;;3.78;;
35877;SDS011;21982;49.804;24.072;2023-03-30T08:19:24;8.02;;;3.72;;
35877;SDS011;21982;49.804;24.072;2023-03-30T08:21:52;13.07;;;5.13;;
35877;SDS011;21982;49.804;24.072;2023-03-30T08:24:17;8.23;;;4.97;;
35877;SDS011;21982;49.804;24.072;2023-03-30T08:26:43;9.45;;;4.15;;
35877;SDS011;21982;49.804;24.072;2023-03-30T08:29:09;11.48;;;4.43;;
35877;SDS011;21982;49.804;24.072;2023-03-30T08:31:37;10.95;;;3.65;;
35877;SDS011;21982;49.804;24.072;2023-03-30T08:34:04;8.25;;;3.60;;
35877;SDS011;21982;49.804;24.072;2023-03-30T08:36:31;10.57;;;4.35;;
35877;SDS011;21982;49.804;24.072;2023-03-30T08:38:57;10.38;;;3.92;;
35877;SDS011;21982;49.804;24.072;2023-03-30T08:46:22;12.38;;;4.80;;
35877;SDS011;21982;49.804;24.072;2023-03-30T08:48:48;10.07;;;3.85;;
35877;SDS011;21982;49.804;24.072;2023-03-30T08:51:49;10.13;;;4.05;;
35877;SDS011;21982;49.804;24.072;2023-03-30T08:54:10;12.23;;;4.93;;
35877;SDS011;21982;49.804;24.072;2023-03-30T08:56:43;10.27;;;4.13;;
35877;SDS011;21982;49.804;24.072;2023-03-30T09:02:08;13.07;;;5.07;;
35877;SDS011;21982;49.804;24.072;2023-03-30T09:07:36;7.85;;;3.67;;
35877;SDS011;21982;49.804;24.072;2023-03-30T09:10:12;13.10;;;5.03;;
35877;SDS011;21982;49.804;24.072;2023-03-30T09:15:18;8.80;;;5.18;;
35877;SDS011;21982;49.804;24.072;2023-03-30T09:17:54;13.13;;;4.05;;
35877;SDS011;21982;49.804;24.072;2023-03-30T09:20:29;7.97;;;3.55;;
35877;SDS011;21982;49.804;24.072;2023-03-30T09:22:59;7.05;;;3.75;;
35877;SDS011;21982;49.804;24.072;2023-03-30T09:38:57;10.13;;;4.15;;
35877;SDS011;21982;49.804;24.072;2023-03-30T09:41:41;8.18;;;3.33;;
35877;SDS011;21982;49.804;24.072;2023-03-30T09:52:59;7.60;;;3.72;;
35877;SDS011;21982;49.804;24.072;2023-03-30T10:00:42;13.40;;;4.88;;
35877;SDS011;21982;49.804;24.072;2023-03-30T10:03:12;6.88;;;3.20;;
35877;SDS011;21982;49.804;24.072;2023-03-30T10:05:58;8.90;;;2.85;;
35877;SDS011;21982;49.804;24.072;2023-03-30T10:11:19;5.47;;;3.80;;
35877;SDS011;21982;49.804;24.072;2023-03-30T10:13:47;6.43;;;2.90;;
35877;SDS011;21982;49.804;24.072;2023-03-30T10:16:23;5.18;;;2.72;;
35877;SDS011;21982;49.804;24.072;2023-03-30T10:18:54;5.97;;;2.85;;
35877;SDS011;21982;49.804;24.072;2023-03-30T10:21:24;5.72;;;2.83;;
35877;SDS011;21982;49.804;24.072;2023-03-30T10:24:04;4.40;;;2.17;;
35877;SDS011;21982;49.804;24.072;2023-03-30T10:26:39;7.28;;;2.97;;
35877;SDS011;21982;49.804;24.072;2023-03-30T10:29:15;8.80;;;3.15;;
35877;SDS011;21982;49.804;24.072;2023-03-30T10:31:43;4.40;;;2.38;;
35877;SDS011;21982;49.804;24.072;2023-03-30T10:34:16;6.93;;;3.20;;
35877;SDS011;21982;49.804;24.072;2023-03-30T10:36:45;7.75;;;3.35;;
35877;SDS011;21982;49.804;24.072;2023-03-30T10:41:53;6.72;;;3.30;;
35877;SDS011;21982;49.804;24.072;2023-03-30T11:00:52;7.03;;;3.05;;
35877;SDS011;21982;49.804;24.072;2023-03-30T11:03:30;7.95;;;3.10;;
35877;SDS011;21982;49.804;24.072;2023-03-30T11:08:36;6.18;;;3.03;;
35877;SDS011;21982;49.804;24.072;2023-03-30T11:11:05;6.53;;;2.97;;
35877;SDS011;21982;49.804;24.072;2023-03-30T11:13:40;8.82;;;2.67;;
35877;SDS011;21982;49.804;24.072;2023-03-30T11:18:58;7.53;;;2.80;;
35877;SDS011;21982;49.804;24.072;2023-03-30T11:24:21;6.25;;;3.22;;
35877;SDS011;21982;49.804;24.072;2023-03-30T11:26:50;7.40;;;3.20;;
35877;SDS011;21982;49.804;24.072;2023-03-30T11:32:25;5.20;;;2.10;;
35877;SDS011;21982;49.804;24.072;2023-03-30T11:34:57;3.90;;;1.98;;
35877;SDS011;21982;49.804;24.072;2023-03-30T11:40:18;5.32;;;2.30;;
35877;SDS011;21982;49.804;24.072;2023-03-30T11:42:53;5.32;;;2.17;;
35877;SDS011;21982;49.804;24.072;2023-03-30T11:45:24;4.32;;;2.40;;
35877;SDS011;21982;49.804;24.072;2023-03-30T11:48:20;5.43;;;2.05;;
35877;SDS011;21982;49.804;24.072;2023-03-30T11:50:57;4.75;;;2.20;;
35877;SDS011;21982;49.804;24.072;2023-03-30T11:59:11;5.38;;;2.38;;
35877;SDS011;21982;49.804;24.072;2023-03-30T12:04:34;2.50;;;1.60;;
35877;SDS011;21982;49.804;24.072;2023-03-30T12:07:19;4.40;;;1.55;;
35877;SDS011;21982;49.804;24.072;2023-03-30T12:09:51;4.95;;;1.75;;
35877;SDS011;21982;49.804;24.072;2023-03-30T12:12:27;5.78;;;2.95;;
35877;SDS011;21982;49.804;24.072;2023-03-30T12:25:35;4.50;;;2.20;;
35877;SDS011;21982;49.804;24.072;2023-03-30T12:28:13;5.75;;;3.00;;
35877;SDS011;21982;49.804;24.072;2023-03-30T12:30:42;6.28;;;1.92;;
35877;SDS011;21982;49.804;24.072;2023-03-30T12:36:22;3.97;;;1.92;;
35877;SDS011;21982;49.804;24.072;2023-03-30T12:38:58;3.10;;;1.45;;
35877;SDS011;21982;49.804;24.072;2023-03-30T12:41:37;7.00;;;1.75;;
35877;SDS011;21982;49.804;24.072;2023-03-30T12:44:18;5.63;;;1.90;;
35877;SDS011;21982;49.804;24.072;2023-03-30T12:47:12;2.50;;;1.92;;
35877;SDS011;21982;49.804;24.072;2023-03-30T12:49:55;5.75;;;2.53;;
35877;SDS011;21982;49.804;24.072;2023-03-30T12:52:32;8.20;;;3.03;;
35877;SDS011;21982;49.804;24.072;2023-03-30T12:55:31;3.25;;;1.40;;
35877;SDS011;21982;49.804;24.072;2023-03-30T12:58:03;7.63;;;2.50;;
35877;SDS011;21982;49.804;24.072;2023-03-30T13:04:04;5.65;;;2.72;;
35877;SDS011;21982;49.804;24.072;2023-03-30T13:06:34;3.45;;;1.65;;
35877;SDS011;21982;49.804;24.072;2023-03-30T13:27:36;4.93;;;2.33;;
35877;SDS011;21982;49.804;24.072;2023-03-30T13:49:13;5.15;;;2.35;;
35877;SDS011;21982;49.804;24.072;2023-03-30T13:51:40;5.72;;;2.58;;
35877;SDS011;21982;49.804;24.072;2023-03-30T13:54:12;6.43;;;3.00;;
35877;SDS011;21982;49.804;24.072;2023-03-30T13:56:43;10.23;;;3.50;;
35877;SDS011;21982;49.804;24.072;2023-03-30T13:59:17;5.15;;;2.50;;
35877;SDS011;21982;49.804;24.072;2023-03-30T14:01:49;4.75;;;2.40;;
35877;SDS011;21982;49.804;24.072;2023-03-30T14:04:18;5.93;;;2.60;;
35877;SDS011;21982;49.804;24.072;2023-03-30T14:06:45;7.93;;;3.75;;
35877;SDS011;21982;49.804;24.072;2023-03-30T14:09:19;7.05;;;2.53;;
35877;SDS011;21982;49.804;24.072;2023-03-30T14:11:55;3.92;;;2.25;;
35877;SDS011;21982;49.804;24.072;2023-03-30T14:14:31;4.97;;;2.53;;
35877;SDS011;21982;49.804;24.072;2023-03-30T14:17:12;8.38;;;3.47;;
35877;SDS011;21982;49.804;24.072;2023-03-30T14:19:46;8.98;;;3.55;;
35877;SDS011;21982;49.804;24.072;2023-03-30T14:22:38;6.10;;;3.17;;
35877;SDS011;21982;49.804;24.072;2023-03-30T14:27:56;7.03;;;2.80;;
35877;SDS011;21982;49.804;24.072;2023-03-30T14:30:26;3.75;;;1.77;;
35877;SDS011;21982;49.804;24.072;2023-03-30T14:33:05;7.45;;;2.78;;
35877;SDS011;21982;49.804;24.072;2023-03-30T14:35:36;5.30;;;2.13;;
35877;SDS011;21982;49.804;24.072;2023-03-30T14:38:10;4.63;;;2.28;;
35877;SDS011;21982;49.804;24.072;2023-03-30T14:40:40;9.60;;;3.30;;
35877;SDS011;21982;49.804;24.072;2023-03-30T14:43:10;5.93;;;2.08;;
35877;SDS011;21982;49.804;24.072;2023-03-30T14:45:38;6.07;;;2.30;;
35877;SDS011;21982;49.804;24.072;2023-03-30T14:48:05;4.90;;;1.98;;
35877;SDS011;21982;49.804;24.072;2023-03-30T14:50:31;5.50;;;2.38;;
35877;SDS011;21982;49.804;24.072;2023-03-30T14:52:57;5.00;;;2.13;;
35877;SDS011;21982;49.804;24.072;2023-03-30T14:55:24;4.03;;;2.08;;
35877;SDS011;21982;49.804;24.072;2023-03-30T14:57:50;9.60;;;2.70;;
35877;SDS011;21982;49.804;24.072;2023-03-30T15:00:17;8.80;;;2.10;;
35877;SDS011;21982;49.804;24.072;2023-03-30T15:02:47;6.25;;;2.20;;
35877;SDS011;21982;49.804;24.072;2023-03-30T15:05:18;5.05;;;1.65;;
35877;SDS011;21982;49.804;24.072;2023-03-30T15:07:49;5.68;;;2.60;;
35877;SDS011;21982;49.804;24.072;2023-03-30T15:10:20;6.32;;;2.65;;
35877;SDS011;21982;49.804;24.072;2023-03-30T15:12:47;4.88;;;2.00;;
35877;SDS011;21982;49.804;24.072;2023-03-30T15:15:13;5.95;;;1.70;;
35877;SDS011;21982;49.804;24.072;2023-03-30T16:23:35;5.80;;;2.95;;
35877;SDS011;21982;49.804;24.072;2023-03-30T16:26:02;8.93;;;3.00;;
35877;SDS011;21982;49.804;24.072;2023-03-30T16:28:28;8.50;;;4.40;;
35877;SDS011;21982;49.804;24.072;2023-03-30T16:30:54;7.05;;;3.45;;
35877;SDS011;21982;49.804;24.072;2023-03-30T16:33:23;6.05;;;2.88;;
35877;SDS011;21982;49.804;24.072;2023-03-30T16:35:50;6.03;;;3.28;;
35877;SDS011;21982;49.804;24.072;2023-03-30T16:38:22;6.43;;;2.72;;
35877;SDS011;21982;49.804;24.072;2023-03-30T16:40:49;6.72;;;2.90;;
35877;SDS011;21982;49.804;24.072;2023-03-30T16:43:16;8.60;;;3.15;;
35877;SDS011;21982;49.804;24.072;2023-03-30T16:45:41;6.57;;;2.63;;
35877;SDS011;21982;49.804;24.072;2023-03-30T16:48:11;8.00;;;3.13;;
35877;SDS011;21982;49.804;24.072;2023-03-30T16:50:43;8.32;;;3.28;;
35877;SDS011;21982;49.804;24.072;2023-03-30T16:53:20;6.28;;;3.28;;
35877;SDS011;21982;49.804;24.072;2023-03-30T16:55:46;11.25;;;3.85;;
35877;SDS011;21982;49.804;24.072;2023-03-30T16:58:12;8.20;;;3.55;;
35877;SDS011;21982;49.804;24.072;2023-03-30T17:00:44;7.43;;;4.18;;
35877;SDS011;21982;49.804;24.072;2023-03-30T17:03:14;8.77;;;3.47;;
35877;SDS011;21982;49.804;24.072;2023-03-30T17:05:40;9.15;;;4.28;;
35877;SDS011;21982;49.804;24.072;2023-03-30T17:08:27;7.95;;;3.65;;
35877;SDS011;21982;49.804;24.072;2023-03-30T17:10:58;8.43;;;3.50;;
35877;SDS011;21982;49.804;24.072;2023-03-30T17:13:28;8.15;;;3.72;;
35877;SDS011;21982;49.804;24.072;2023-03-30T17:15:56;9.23;;;4.05;;
35877;SDS011;21982;49.804;24.072;2023-03-30T17:18:26;8.38;;;3.45;;
35877;SDS011;21982;49.804;24.072;2023-03-30T17:23:24;13.35;;;6.05;;
35877;SDS011;21982;49.804;24.072;2023-03-30T17:25:51;10.38;;;4.15;;
35877;SDS011;21982;49.804;24.072;2023-03-30T17:28:22;9.48;;;4.05;;
35877;SDS011;21982;49.804;24.072;2023-03-30T17:30:51;8.18;;;4.85;;
35877;SDS011;21982;49.804;24.072;2023-03-30T17:33:18;9.90;;;4.72;;
35877;SDS011;21982;49.804;24.072;2023-03-30T17:36:05;9.98;;;4.68;;
35877;SDS011;21982;49.804;24.072;2023-03-30T17:38:52;12.60;;;4.53;;
35877;SDS011;21982;49.804;24.072;2023-03-30T17:41:18;9.80;;;4.43;;
35877;SDS011;21982;49.804;24.072;2023-03-30T17:43:46;12.38;;;4.53;;
35877;SDS011;21982;49.804;24.072;2023-03-30T17:46:31;8.55;;;4.25;;
35877;SDS011;21982;49.804;24.072;2023-03-30T17:48:56;10.00;;;4.53;;
35877;SDS011;21982;49.804;24.072;2023-03-30T17:51:23;7.22;;;3.85;;
35877;SDS011;21982;49.804;24.072;2023-03-30T18:42:34;9.13;;;4.30;;
35877;SDS011;21982;49.804;24.072;2023-03-30T18:45:03;11.00;;;6.18;;
35877;SDS011;21982;49.804;24.072;2023-03-30T18:47:48;9.75;;;4.45;;
35877;SDS011;21982;49.804;24.072;2023-03-30T18:50:16;9.40;;;4.03;;
35877;SDS011;21982;49.804;24.072;2023-03-30T18:52:46;11.75;;;4.00;;
35877;SDS011;21982;49.804;24.072;2023-03-30T18:55:12;11.40;;;4.03;;
35877;SDS011;21982;49.804;24.072;2023-03-30T18:57:47;7.10;;;4.43;;
35877;SDS011;21982;49.804;24.072;2023-03-30T19:00:17;8.75;;;5.13;;
35877;SDS011;21982;49.804;24.072;2023-03-30T19:02:45;9.40;;;3.88;;
35877;SDS011;21982;49.804;24.072;2023-03-30T19:05:11;8.70;;;4.60;;
35877;SDS011;21982;49.804;24.072;2023-03-30T19:07:37;10.27;;;3.90;;
35877;SDS011;21982;49.804;24.072;2023-03-30T19:10:08;9.25;;;4.53;;
35877;SDS011;21982;49.804;24.072;2023-03-30T19:12:38;6.30;;;3.70;;
35877;SDS011;21982;49.804;24.072;2023-03-30T19:15:04;10.77;;;4.45;;
35877;SDS011;21982;49.804;24.072;2023-03-30T19:17:30;15.00;;;5.18;;
35877;SDS011;21982;49.804;24.072;2023-03-30T19:19:55;11.02;;;5.15;;
35877;SDS011;21982;49.804;24.072;2023-03-30T19:22:21;8.80;;;4.25;;
35877;SDS011;21982;49.804;24.072;2023-03-30T19:24:52;10.27;;;4.45;;
35877;SDS011;21982;49.804;24.072;2023-03-30T19:27:18;9.50;;;5.00;;
35877;SDS011;21982;49.804;24.072;2023-03-30T19:29:46;11.50;;;4.40;;
35877;SDS011;21982;49.804;24.072;2023-03-30T19:32:11;9.73;;;4.88;;
35877;SDS011;21982;49.804;24.072;2023-03-30T19:34:37;10.23;;;4.50;;
35877;SDS011;21982;49.804;24.072;2023-03-30T19:37:04;11.65;;;5.38;;
35877;SDS011;21982;49.804;24.072;2023-03-30T19:39:33;8.95;;;5.07;;
35877;SDS011;21982;49.804;24.072;2023-03-30T19:41:58;8.73;;;4.30;;
35877;SDS011;21982;49.804;24.072;2023-03-30T19:44:23;9.70;;;5.13;;
35877;SDS011;21982;49.804;24.072;2023-03-30T19:46:49;10.50;;;4.82;;
35877;SDS011;21982;49.804;24.072;2023-03-30T19:49:20;9.68;;;5.53;;
35877;SDS011;21982;49.804;24.072;2023-03-30T19:51:46;9.60;;;5.20;;
35877;SDS011;21982;49.804;24.072;2023-03-30T19:54:11;10.30;;;5.03;;
35877;SDS011;21982;49.804;24.072;2023-03-30T19:56:37;8.55;;;4.72;;
35877;SDS011;21982;49.804;24.072;2023-03-30T21:00:37;9.60;;;5.13;;
35877;SDS011;21982;49.804;24.072;2023-03-30T21:03:03;11.85;;;6.25;;
35877;SDS011;21982;49.804;24.072;2023-03-30T21:05:28;14.02;;;5.72;;
35877;SDS011;21982;49.804;24.072;2023-03-30T21:07:55;9.35;;;4.90;;
35877;SDS011;21982;49.804;24.072;2023-03-30T21:10:23;10.98;;;5.50;;
35877;SDS011;21982;49.804;24.072;2023-03-30T21:12:48;9.43;;;4.78;;
35877;SDS011;21982;49.804;24.072;2023-03-30T21:15:14;12.23;;;4.85;;
35877;SDS011;21982;49.804;24.072;2023-03-30T21:17:40;10.32;;;5.18;;
35877;SDS011;21982;49.804;24.072;2023-03-30T21:20:12;11.23;;;5.80;;
35877;SDS011;21982;49.804;24.072;2023-03-30T21:22:38;13.18;;;6.13;;
35877;SDS011;21982;49.804;24.072;2023-03-30T21:25:04;9.57;;;5.78;;
35877;SDS011;21982;49.804;24.072;2023-03-30T21:27:30;9.98;;;5.95;;